sensor_id;sensor_type;location;lat;lon;timestamp;temperature;humidity
32173;DHT22;18679;45.190;5.722;2023-02-28T00:02:49;8.50;42.90
32173;DHT22;18679;45.190;5.722;2023-02-28T00:05:50;8.40;42.90
32173;DHT22;18679;45.190;5.722;2023-02-28T00:08:51;8.40;43.00
32173;DHT22;18679;45.190;5.722;2023-02-28T00:11:52;8.40;43.10
32173;DHT22;18679;45.190;5.722;2023-02-28T00:14:53;8.40;43.20
32173;DHT22;18679;45.190;5.722;2023-02-28T00:17:54;8.40;43.20
32173;DHT22;18679;45.190;5.722;2023-02-28T00:20:56;8.40;43.30
32173;DHT22;18679;45.190;5.722;2023-02-28T00:23:57;8.40;43.30
32173;DHT22;18679;45.190;5.722;2023-02-28T00:26:58;8.50;43.40
32173;DHT22;18679;45.190;5.722;2023-02-28T00:29:59;8.50;43.40
32173;DHT22;18679;45.190;5.722;2023-02-28T00:33:01;8.40;43.30
32173;DHT22;18679;45.190;5.722;2023-02-28T00:36:08;8.40;43.40
32173;DHT22;18679;45.190;5.722;2023-02-28T00:39:10;8.50;43.40
32173;DHT22;18679;45.190;5.722;2023-02-28T00:42:12;8.50;43.40
32173;DHT22;18679;45.190;5.722;2023-02-28T00:45:14;8.50;43.40
32173;DHT22;18679;45.190;5.722;2023-02-28T00:48:15;8.50;43.50
32173;DHT22;18679;45.190;5.722;2023-02-28T00:51:16;8.50;43.50
32173;DHT22;18679;45.190;5.722;2023-02-28T00:54:18;8.40;44.10
32173;DHT22;18679;45.190;5.722;2023-02-28T00:57:21;8.50;43.60
32173;DHT22;18679;45.190;5.722;2023-02-28T01:00:23;8.50;43.70
32173;DHT22;18679;45.190;5.722;2023-02-28T01:03:24;8.50;43.70
32173;DHT22;18679;45.190;5.722;2023-02-28T01:06:25;8.40;43.80
32173;DHT22;18679;45.190;5.722;2023-02-28T01:09:26;8.40;43.90
32173;DHT22;18679;45.190;5.722;2023-02-28T01:12:28;8.40;43.90
32173;DHT22;18679;45.190;5.722;2023-02-28T01:15:29;8.40;44.10
32173;DHT22;18679;45.190;5.722;2023-02-28T01:18:30;8.40;44.10
32173;DHT22;18679;45.190;5.722;2023-02-28T01:21:31;8.40;44.10
32173;DHT22;18679;45.190;5.722;2023-02-28T01:24:32;8.30;44.20
32173;DHT22;18679;45.190;5.722;2023-02-28T01:27:33;8.30;44.40
32173;DHT22;18679;45.190;5.722;2023-02-28T01:30:35;8.30;44.50
32173;DHT22;18679;45.190;5.722;2023-02-28T01:33:37;8.20;44.70
32173;DHT22;18679;45.190;5.722;2023-02-28T01:36:38;8.10;44.80
32173;DHT22;18679;45.190;5.722;2023-02-28T01:39:39;8.10;45.00
32173;DHT22;18679;45.190;5.722;2023-02-28T01:42:40;8.10;45.10
32173;DHT22;18679;45.190;5.722;2023-02-28T01:45:41;8.00;45.20
32173;DHT22;18679;45.190;5.722;2023-02-28T01:48:51;8.00;45.30
32173;DHT22;18679;45.190;5.722;2023-02-28T01:51:54;7.90;45.50
32173;DHT22;18679;45.190;5.722;2023-02-28T01:54:59;7.90;45.60
32173;DHT22;18679;45.190;5.722;2023-02-28T01:58:04;7.80;45.70
32173;DHT22;18679;45.190;5.722;2023-02-28T02:01:07;7.80;45.80
32173;DHT22;18679;45.190;5.722;2023-02-28T02:04:08;7.80;46.00
32173;DHT22;18679;45.190;5.722;2023-02-28T02:07:09;7.70;46.20
32173;DHT22;18679;45.190;5.722;2023-02-28T02:10:20;7.70;46.30
32173;DHT22;18679;45.190;5.722;2023-02-28T02:27:57;7.60;46.60
32173;DHT22;18679;45.190;5.722;2023-02-28T02:31:18;7.60;46.50
32173;DHT22;18679;45.190;5.722;2023-02-28T02:34:33;7.70;46.50
32173;DHT22;18679;45.190;5.722;2023-02-28T02:37:51;7.80;46.60
32173;DHT22;18679;45.190;5.722;2023-02-28T02:44:35;7.80;46.60
32173;DHT22;18679;45.190;5.722;2023-02-28T02:47:41;7.80;46.60
32173;DHT22;18679;45.190;5.722;2023-02-28T02:50:46;7.80;46.60
32173;DHT22;18679;45.190;5.722;2023-02-28T02:53:52;7.80;46.60
32173;DHT22;18679;45.190;5.722;2023-02-28T02:57:08;7.80;46.50
32173;DHT22;18679;45.190;5.722;2023-02-28T03:00:12;7.80;46.50
32173;DHT22;18679;45.190;5.722;2023-02-28T03:03:14;7.80;46.60
32173;DHT22;18679;45.190;5.722;2023-02-28T03:06:18;7.90;46.70
32173;DHT22;18679;45.190;5.722;2023-02-28T03:09:19;8.10;46.90
32173;DHT22;18679;45.190;5.722;2023-02-28T03:12:20;7.80;46.80
32173;DHT22;18679;45.190;5.722;2023-02-28T03:15:29;7.80;46.80
32173;DHT22;18679;45.190;5.722;2023-02-28T03:18:44;7.80;46.90
32173;DHT22;18679;45.190;5.722;2023-02-28T03:29:03;7.60;47.20
32173;DHT22;18679;45.190;5.722;2023-02-28T03:35:17;7.50;47.50
32173;DHT22;18679;45.190;5.722;2023-02-28T03:38:51;7.50;47.60
32173;DHT22;18679;45.190;5.722;2023-02-28T03:41:56;7.50;47.80
32173;DHT22;18679;45.190;5.722;2023-02-28T03:45:03;7.10;47.70
32173;DHT22;18679;45.190;5.722;2023-02-28T03:48:19;7.40;47.90
32173;DHT22;18679;45.190;5.722;2023-02-28T03:51:24;7.50;48.00
32173;DHT22;18679;45.190;5.722;2023-02-28T03:54:31;7.40;48.00
32173;DHT22;18679;45.190;5.722;2023-02-28T04:01:20;7.40;48.20
32173;DHT22;18679;45.190;5.722;2023-02-28T04:04:19;7.40;48.30
32173;DHT22;18679;45.190;5.722;2023-02-28T04:07:20;7.40;48.30
32173;DHT22;18679;45.190;5.722;2023-02-28T04:10:21;7.40;48.40
32173;DHT22;18679;45.190;5.722;2023-02-28T04:13:22;7.40;48.40
32173;DHT22;18679;45.190;5.722;2023-02-28T04:16:24;7.40;48.40
32173;DHT22;18679;45.190;5.722;2023-02-28T04:19:25;7.40;48.40
32173;DHT22;18679;45.190;5.722;2023-02-28T04:22:26;7.50;48.40
32173;DHT22;18679;45.190;5.722;2023-02-28T04:25:27;7.50;48.40
32173;DHT22;18679;45.190;5.722;2023-02-28T04:28:28;7.50;48.30
32173;DHT22;18679;45.190;5.722;2023-02-28T04:31:29;7.40;48.30
32173;DHT22;18679;45.190;5.722;2023-02-28T04:34:31;7.60;48.30
32173;DHT22;18679;45.190;5.722;2023-02-28T04:37:33;7.60;48.20
32173;DHT22;18679;45.190;5.722;2023-02-28T04:40:35;7.60;48.20
32173;DHT22;18679;45.190;5.722;2023-02-28T04:43:36;7.60;48.10
32173;DHT22;18679;45.190;5.722;2023-02-28T04:46:38;7.70;48.10
32173;DHT22;18679;45.190;5.722;2023-02-28T04:49:39;7.70;48.10
32173;DHT22;18679;45.190;5.722;2023-02-28T04:52:41;7.70;48.00
32173;DHT22;18679;45.190;5.722;2023-02-28T04:55:43;7.70;48.00
32173;DHT22;18679;45.190;5.722;2023-02-28T04:58:44;7.70;48.10
32173;DHT22;18679;45.190;5.722;2023-02-28T05:01:47;7.60;48.20
32173;DHT22;18679;45.190;5.722;2023-02-28T05:04:48;7.50;48.30
32173;DHT22;18679;45.190;5.722;2023-02-28T05:07:49;7.60;48.40
32173;DHT22;18679;45.190;5.722;2023-02-28T05:10:50;7.50;48.40
32173;DHT22;18679;45.190;5.722;2023-02-28T05:13:52;7.50;48.50
32173;DHT22;18679;45.190;5.722;2023-02-28T05:16:54;7.50;48.50
32173;DHT22;18679;45.190;5.722;2023-02-28T05:19:55;7.50;48.40
32173;DHT22;18679;45.190;5.722;2023-02-28T05:22:57;7.50;48.40
32173;DHT22;18679;45.190;5.722;2023-02-28T05:25:59;7.50;48.40
32173;DHT22;18679;45.190;5.722;2023-02-28T05:29:00;7.50;48.60
32173;DHT22;18679;45.190;5.722;2023-02-28T05:32:01;7.40;48.70
32173;DHT22;18679;45.190;5.722;2023-02-28T05:35:02;7.40;48.80
32173;DHT22;18679;45.190;5.722;2023-02-28T05:38:03;7.30;48.90
32173;DHT22;18679;45.190;5.722;2023-02-28T05:41:06;7.30;49.10
32173;DHT22;18679;45.190;5.722;2023-02-28T05:44:08;7.30;49.20
32173;DHT22;18679;45.190;5.722;2023-02-28T05:47:09;7.20;49.30
32173;DHT22;18679;45.190;5.722;2023-02-28T05:50:10;7.20;49.60
32173;DHT22;18679;45.190;5.722;2023-02-28T05:53:11;7.20;49.70
32173;DHT22;18679;45.190;5.722;2023-02-28T05:56:12;7.10;49.60
32173;DHT22;18679;45.190;5.722;2023-02-28T05:59:13;7.10;49.70
32173;DHT22;18679;45.190;5.722;2023-02-28T06:02:17;7.10;49.80
32173;DHT22;18679;45.190;5.722;2023-02-28T06:05:18;7.10;49.90
32173;DHT22;18679;45.190;5.722;2023-02-28T06:08:19;7.10;49.90
32173;DHT22;18679;45.190;5.722;2023-02-28T06:11:21;7.10;50.00
32173;DHT22;18679;45.190;5.722;2023-02-28T06:14:22;7.10;50.10
32173;DHT22;18679;45.190;5.722;2023-02-28T06:17:23;7.10;50.20
32173;DHT22;18679;45.190;5.722;2023-02-28T06:20:25;7.10;50.20
32173;DHT22;18679;45.190;5.722;2023-02-28T06:23:30;7.00;50.20
32173;DHT22;18679;45.190;5.722;2023-02-28T06:26:31;7.00;50.20
32173;DHT22;18679;45.190;5.722;2023-02-28T06:29:33;7.10;50.30
32173;DHT22;18679;45.190;5.722;2023-02-28T06:32:34;7.00;50.20
32173;DHT22;18679;45.190;5.722;2023-02-28T06:35:36;7.00;50.10
32173;DHT22;18679;45.190;5.722;2023-02-28T06:38:37;7.00;50.10
32173;DHT22;18679;45.190;5.722;2023-02-28T06:41:38;7.00;50.10
32173;DHT22;18679;45.190;5.722;2023-02-28T06:44:40;7.00;50.10
32173;DHT22;18679;45.190;5.722;2023-02-28T06:47:43;7.00;50.00
32173;DHT22;18679;45.190;5.722;2023-02-28T06:50:44;7.00;50.00
32173;DHT22;18679;45.190;5.722;2023-02-28T06:53:46;7.00;49.90
32173;DHT22;18679;45.190;5.722;2023-02-28T06:56:47;7.00;49.90
32173;DHT22;18679;45.190;5.722;2023-02-28T06:59:49;7.00;49.90
32173;DHT22;18679;45.190;5.722;2023-02-28T07:02:50;6.90;49.90
32173;DHT22;18679;45.190;5.722;2023-02-28T07:05:51;7.00;49.90
32173;DHT22;18679;45.190;5.722;2023-02-28T07:08:53;7.00;49.70
32173;DHT22;18679;45.190;5.722;2023-02-28T07:11:55;7.00;49.70
32173;DHT22;18679;45.190;5.722;2023-02-28T07:14:56;7.00;49.60
32173;DHT22;18679;45.190;5.722;2023-02-28T07:17:57;7.00;49.60
32173;DHT22;18679;45.190;5.722;2023-02-28T07:21:01;7.10;49.60
32173;DHT22;18679;45.190;5.722;2023-02-28T07:24:02;7.10;49.50
32173;DHT22;18679;45.190;5.722;2023-02-28T07:27:03;7.20;49.40
32173;DHT22;18679;45.190;5.722;2023-02-28T07:30:04;7.30;49.30
32173;DHT22;18679;45.190;5.722;2023-02-28T07:33:06;7.30;49.20
32173;DHT22;18679;45.190;5.722;2023-02-28T07:36:13;7.30;49.00
32173;DHT22;18679;45.190;5.722;2023-02-28T07:39:15;7.40;49.00
32173;DHT22;18679;45.190;5.722;2023-02-28T07:42:16;7.50;48.90
32173;DHT22;18679;45.190;5.722;2023-02-28T07:45:18;7.60;48.70
32173;DHT22;18679;45.190;5.722;2023-02-28T07:48:20;7.60;48.60
32173;DHT22;18679;45.190;5.722;2023-02-28T07:51:22;7.70;48.60
32173;DHT22;18679;45.190;5.722;2023-02-28T07:54:23;7.70;48.40
32173;DHT22;18679;45.190;5.722;2023-02-28T07:57:24;7.70;48.20
32173;DHT22;18679;45.190;5.722;2023-02-28T08:00:26;7.80;48.10
32173;DHT22;18679;45.190;5.722;2023-02-28T08:03:27;7.80;48.00
32173;DHT22;18679;45.190;5.722;2023-02-28T08:06:28;7.80;47.90
32173;DHT22;18679;45.190;5.722;2023-02-28T08:09:29;7.80;47.70
32173;DHT22;18679;45.190;5.722;2023-02-28T08:12:31;7.80;47.70
32173;DHT22;18679;45.190;5.722;2023-02-28T08:15:32;7.80;47.70
32173;DHT22;18679;45.190;5.722;2023-02-28T08:18:33;7.90;47.70
32173;DHT22;18679;45.190;5.722;2023-02-28T08:21:35;7.90;47.60
32173;DHT22;18679;45.190;5.722;2023-02-28T08:24:36;8.00;47.60
32173;DHT22;18679;45.190;5.722;2023-02-28T08:27:37;8.10;47.40
32173;DHT22;18679;45.190;5.722;2023-02-28T08:30:38;8.20;47.20
32173;DHT22;18679;45.190;5.722;2023-02-28T08:33:41;8.40;47.00
32173;DHT22;18679;45.190;5.722;2023-02-28T08:36:43;8.50;46.80
32173;DHT22;18679;45.190;5.722;2023-02-28T08:39:45;8.10;46.40
32173;DHT22;18679;45.190;5.722;2023-02-28T08:42:47;8.70;46.40
32173;DHT22;18679;45.190;5.722;2023-02-28T08:45:51;8.80;46.20
32173;DHT22;18679;45.190;5.722;2023-02-28T08:48:56;8.80;46.00
32173;DHT22;18679;45.190;5.722;2023-02-28T08:52:02;8.80;46.50
32173;DHT22;18679;45.190;5.722;2023-02-28T08:55:03;8.80;45.80
32173;DHT22;18679;45.190;5.722;2023-02-28T08:58:04;8.90;45.80
32173;DHT22;18679;45.190;5.722;2023-02-28T09:01:16;9.00;45.70
32173;DHT22;18679;45.190;5.722;2023-02-28T09:04:18;9.10;45.50
32173;DHT22;18679;45.190;5.722;2023-02-28T09:07:19;9.10;45.40
32173;DHT22;18679;45.190;5.722;2023-02-28T09:10:20;9.20;45.40
32173;DHT22;18679;45.190;5.722;2023-02-28T09:13:22;9.20;45.30
32173;DHT22;18679;45.190;5.722;2023-02-28T09:16:23;9.10;45.30
32173;DHT22;18679;45.190;5.722;2023-02-28T09:19:24;9.10;45.20
32173;DHT22;18679;45.190;5.722;2023-02-28T09:22:25;9.00;45.10
32173;DHT22;18679;45.190;5.722;2023-02-28T09:25:26;9.00;45.20
32173;DHT22;18679;45.190;5.722;2023-02-28T09:28:27;8.90;45.30
32173;DHT22;18679;45.190;5.722;2023-02-28T09:31:28;9.00;45.40
32173;DHT22;18679;45.190;5.722;2023-02-28T09:34:29;9.10;45.70
32173;DHT22;18679;45.190;5.722;2023-02-28T09:37:33;9.20;45.10
32173;DHT22;18679;45.190;5.722;2023-02-28T09:41:08;9.40;44.90
32173;DHT22;18679;45.190;5.722;2023-02-28T09:44:17;9.60;44.80
32173;DHT22;18679;45.190;5.722;2023-02-28T09:47:36;9.80;44.40
32173;DHT22;18679;45.190;5.722;2023-02-28T09:50:44;9.80;44.20
32173;DHT22;18679;45.190;5.722;2023-02-28T09:53:47;9.90;44.10
32173;DHT22;18679;45.190;5.722;2023-02-28T09:57:01;10.00;43.90
32173;DHT22;18679;45.190;5.722;2023-02-28T10:06:53;10.10;43.40
32173;DHT22;18679;45.190;5.722;2023-02-28T10:09:57;10.10;43.50
32173;DHT22;18679;45.190;5.722;2023-02-28T10:13:01;10.10;43.50
32173;DHT22;18679;45.190;5.722;2023-02-28T10:16:25;10.10;43.40
32173;DHT22;18679;45.190;5.722;2023-02-28T10:19:38;10.10;43.20
32173;DHT22;18679;45.190;5.722;2023-02-28T10:22:58;10.10;43.30
32173;DHT22;18679;45.190;5.722;2023-02-28T10:26:11;10.10;43.30
32173;DHT22;18679;45.190;5.722;2023-02-28T10:29:14;10.20;43.20
32173;DHT22;18679;45.190;5.722;2023-02-28T10:32:21;10.20;43.10
32173;DHT22;18679;45.190;5.722;2023-02-28T10:35:25;10.20;43.20
32173;DHT22;18679;45.190;5.722;2023-02-28T10:38:38;10.20;43.20
32173;DHT22;18679;45.190;5.722;2023-02-28T10:41:42;10.20;43.00
32173;DHT22;18679;45.190;5.722;2023-02-28T10:45:04;10.30;42.90
32173;DHT22;18679;45.190;5.722;2023-02-28T10:51:19;10.30;42.70
32173;DHT22;18679;45.190;5.722;2023-02-28T10:54:52;10.20;42.70
32173;DHT22;18679;45.190;5.722;2023-02-28T10:58:26;10.30;42.90
32173;DHT22;18679;45.190;5.722;2023-02-28T11:04:44;10.40;42.80
32173;DHT22;18679;45.190;5.722;2023-02-28T11:07:55;10.50;42.80
32173;DHT22;18679;45.190;5.722;2023-02-28T11:10:58;10.60;42.70
32173;DHT22;18679;45.190;5.722;2023-02-28T11:14:06;10.70;42.50
32173;DHT22;18679;45.190;5.722;2023-02-28T11:17:21;10.70;42.30
32173;DHT22;18679;45.190;5.722;2023-02-28T11:20:25;10.80;42.20
32173;DHT22;18679;45.190;5.722;2023-02-28T11:23:29;10.80;42.20
32173;DHT22;18679;45.190;5.722;2023-02-28T11:26:46;10.90;42.10
32173;DHT22;18679;45.190;5.722;2023-02-28T11:29:49;10.90;42.00
32173;DHT22;18679;45.190;5.722;2023-02-28T11:32:50;11.00;41.90
32173;DHT22;18679;45.190;5.722;2023-02-28T11:35:52;11.10;41.80
32173;DHT22;18679;45.190;5.722;2023-02-28T11:39:01;11.20;41.60
32173;DHT22;18679;45.190;5.722;2023-02-28T11:42:27;11.20;41.50
32173;DHT22;18679;45.190;5.722;2023-02-28T11:55:56;11.70;40.50
32173;DHT22;18679;45.190;5.722;2023-02-28T12:09:52;11.80;40.10
32173;DHT22;18679;45.190;5.722;2023-02-28T12:13:24;11.80;40.20
32173;DHT22;18679;45.190;5.722;2023-02-28T12:29:58;11.20;40.20
32173;DHT22;18679;45.190;5.722;2023-02-28T12:36:11;11.00;40.60
32173;DHT22;18679;45.190;5.722;2023-02-28T12:39:26;11.00;40.60
32173;DHT22;18679;45.190;5.722;2023-02-28T12:42:30;11.00;40.60
32173;DHT22;18679;45.190;5.722;2023-02-28T12:45:46;11.00;40.60
32173;DHT22;18679;45.190;5.722;2023-02-28T12:49:00;11.10;40.60
32173;DHT22;18679;45.190;5.722;2023-02-28T12:52:05;11.10;40.40
32173;DHT22;18679;45.190;5.722;2023-02-28T12:58:51;11.10;40.40
32173;DHT22;18679;45.190;5.722;2023-02-28T13:11:52;11.10;40.50
32173;DHT22;18679;45.190;5.722;2023-02-28T13:15:13;11.10;40.50
32173;DHT22;18679;45.190;5.722;2023-02-28T13:18:38;11.10;41.00
32173;DHT22;18679;45.190;5.722;2023-02-28T13:21:44;11.10;40.30
32173;DHT22;18679;45.190;5.722;2023-02-28T13:24:46;11.20;40.20
32173;DHT22;18679;45.190;5.722;2023-02-28T13:27:53;11.40;40.00
32173;DHT22;18679;45.190;5.722;2023-02-28T13:31:05;11.50;39.80
32173;DHT22;18679;45.190;5.722;2023-02-28T13:34:14;11.30;39.60
32173;DHT22;18679;45.190;5.722;2023-02-28T13:40:33;11.50;39.70
32173;DHT22;18679;45.190;5.722;2023-02-28T13:47:15;11.40;40.00
32173;DHT22;18679;45.190;5.722;2023-02-28T13:53:43;11.40;39.90
32173;DHT22;18679;45.190;5.722;2023-02-28T13:57:03;11.50;40.00
32173;DHT22;18679;45.190;5.722;2023-02-28T14:03:58;11.70;39.60
32173;DHT22;18679;45.190;5.722;2023-02-28T14:07:04;11.70;39.70
32173;DHT22;18679;45.190;5.722;2023-02-28T14:10:07;11.60;39.70
32173;DHT22;18679;45.190;5.722;2023-02-28T14:13:41;11.70;39.80
32173;DHT22;18679;45.190;5.722;2023-02-28T14:16:46;11.80;39.50
32173;DHT22;18679;45.190;5.722;2023-02-28T14:19:48;11.60;39.30
32173;DHT22;18679;45.190;5.722;2023-02-28T14:26:10;11.90;39.40
32173;DHT22;18679;45.190;5.722;2023-02-28T14:29:36;11.90;39.20
32173;DHT22;18679;45.190;5.722;2023-02-28T14:36:20;12.00;39.10
32173;DHT22;18679;45.190;5.722;2023-02-28T14:39:25;11.90;39.10
32173;DHT22;18679;45.190;5.722;2023-02-28T14:42:35;11.90;39.70
32173;DHT22;18679;45.190;5.722;2023-02-28T14:45:38;11.70;39.30
32173;DHT22;18679;45.190;5.722;2023-02-28T14:48:39;11.40;39.50
32173;DHT22;18679;45.190;5.722;2023-02-28T14:51:40;11.30;39.80
32173;DHT22;18679;45.190;5.722;2023-02-28T14:54:42;11.10;40.10
32173;DHT22;18679;45.190;5.722;2023-02-28T14:58:05;11.00;40.30
32173;DHT22;18679;45.190;5.722;2023-02-28T15:01:10;10.90;41.10
32173;DHT22;18679;45.190;5.722;2023-02-28T15:04:25;10.80;40.70
32173;DHT22;18679;45.190;5.722;2023-02-28T15:07:28;10.70;40.90
32173;DHT22;18679;45.190;5.722;2023-02-28T15:10:29;10.70;40.90
32173;DHT22;18679;45.190;5.722;2023-02-28T15:13:41;10.60;41.00
32173;DHT22;18679;45.190;5.722;2023-02-28T15:16:47;10.60;41.30
32173;DHT22;18679;45.190;5.722;2023-02-28T15:19:52;10.40;41.40
32173;DHT22;18679;45.190;5.722;2023-02-28T15:22:56;10.40;41.60
32173;DHT22;18679;45.190;5.722;2023-02-28T15:25:57;10.20;41.70
32173;DHT22;18679;45.190;5.722;2023-02-28T15:29:07;10.30;41.80
32173;DHT22;18679;45.190;5.722;2023-02-28T15:32:30;10.20;41.80
32173;DHT22;18679;45.190;5.722;2023-02-28T15:35:32;10.10;42.00
32173;DHT22;18679;45.190;5.722;2023-02-28T15:38:35;10.10;42.20
32173;DHT22;18679;45.190;5.722;2023-02-28T15:41:37;10.10;42.30
32173;DHT22;18679;45.190;5.722;2023-02-28T15:44:38;10.00;42.30
32173;DHT22;18679;45.190;5.722;2023-02-28T15:47:39;10.00;42.50
32173;DHT22;18679;45.190;5.722;2023-02-28T15:50:40;10.00;42.60
32173;DHT22;18679;45.190;5.722;2023-02-28T15:53:56;9.90;42.30
32173;DHT22;18679;45.190;5.722;2023-02-28T15:57:06;9.90;42.80
32173;DHT22;18679;45.190;5.722;2023-02-28T16:00:18;9.90;42.80
32173;DHT22;18679;45.190;5.722;2023-02-28T16:03:24;9.90;42.90
32173;DHT22;18679;45.190;5.722;2023-02-28T16:06:35;9.80;43.00
32173;DHT22;18679;45.190;5.722;2023-02-28T16:09:37;9.80;43.10
32173;DHT22;18679;45.190;5.722;2023-02-28T16:12:39;9.70;43.30
32173;DHT22;18679;45.190;5.722;2023-02-28T16:15:43;9.60;43.30
32173;DHT22;18679;45.190;5.722;2023-02-28T16:18:44;9.60;43.50
32173;DHT22;18679;45.190;5.722;2023-02-28T16:21:45;9.50;43.60
32173;DHT22;18679;45.190;5.722;2023-02-28T16:24:46;9.50;43.70
32173;DHT22;18679;45.190;5.722;2023-02-28T16:27:49;9.40;43.80
32173;DHT22;18679;45.190;5.722;2023-02-28T16:30:52;9.40;43.90
32173;DHT22;18679;45.190;5.722;2023-02-28T16:33:54;9.40;44.00
32173;DHT22;18679;45.190;5.722;2023-02-28T16:36:55;9.40;44.00
32173;DHT22;18679;45.190;5.722;2023-02-28T16:39:56;9.40;44.10
32173;DHT22;18679;45.190;5.722;2023-02-28T16:42:58;9.40;44.20
32173;DHT22;18679;45.190;5.722;2023-02-28T16:46:00;9.40;44.20
32173;DHT22;18679;45.190;5.722;2023-02-28T16:49:03;9.40;44.20
32173;DHT22;18679;45.190;5.722;2023-02-28T16:52:04;9.40;44.30
32173;DHT22;18679;45.190;5.722;2023-02-28T16:55:06;9.30;44.30
32173;DHT22;18679;45.190;5.722;2023-02-28T16:58:13;9.30;45.00
32173;DHT22;18679;45.190;5.722;2023-02-28T17:01:16;9.30;44.50
32173;DHT22;18679;45.190;5.722;2023-02-28T17:04:17;9.20;44.50
32173;DHT22;18679;45.190;5.722;2023-02-28T17:07:18;9.20;44.70
32173;DHT22;18679;45.190;5.722;2023-02-28T17:10:22;9.10;44.70
32173;DHT22;18679;45.190;5.722;2023-02-28T17:13:23;9.10;44.80
32173;DHT22;18679;45.190;5.722;2023-02-28T17:16:35;9.10;44.80
32173;DHT22;18679;45.190;5.722;2023-02-28T17:19:36;9.00;44.80
32173;DHT22;18679;45.190;5.722;2023-02-28T17:22:38;9.10;44.80
32173;DHT22;18679;45.190;5.722;2023-02-28T17:25:39;9.10;44.80
32173;DHT22;18679;45.190;5.722;2023-02-28T17:28:41;9.10;44.80
32173;DHT22;18679;45.190;5.722;2023-02-28T17:31:41;9.10;44.80
32173;DHT22;18679;45.190;5.722;2023-02-28T17:34:43;9.10;44.70
32173;DHT22;18679;45.190;5.722;2023-02-28T17:37:44;9.10;44.70
32173;DHT22;18679;45.190;5.722;2023-02-28T17:40:45;9.10;44.70
32173;DHT22;18679;45.190;5.722;2023-02-28T17:43:46;9.10;45.30
32173;DHT22;18679;45.190;5.722;2023-02-28T17:46:48;9.10;44.60
32173;DHT22;18679;45.190;5.722;2023-02-28T17:49:50;9.10;44.60
32173;DHT22;18679;45.190;5.722;2023-02-28T17:52:51;9.10;44.70
32173;DHT22;18679;45.190;5.722;2023-02-28T17:55:51;9.10;44.70
32173;DHT22;18679;45.190;5.722;2023-02-28T17:58:54;9.10;44.60
32173;DHT22;18679;45.190;5.722;2023-02-28T18:01:55;9.10;44.60
32173;DHT22;18679;45.190;5.722;2023-02-28T18:04:56;9.10;44.50
32173;DHT22;18679;45.190;5.722;2023-02-28T18:07:58;9.80;44.80
32173;DHT22;18679;45.190;5.722;2023-02-28T18:10:59;9.10;44.40
32173;DHT22;18679;45.190;5.722;2023-02-28T18:14:00;9.10;44.40
32173;DHT22;18679;45.190;5.722;2023-02-28T18:17:01;9.10;44.40
32173;DHT22;18679;45.190;5.722;2023-02-28T18:20:03;9.20;44.50
32173;DHT22;18679;45.190;5.722;2023-02-28T18:23:05;9.10;44.40
32173;DHT22;18679;45.190;5.722;2023-02-28T18:26:07;9.10;44.40
32173;DHT22;18679;45.190;5.722;2023-02-28T18:29:13;9.20;44.40
32173;DHT22;18679;45.190;5.722;2023-02-28T18:32:15;9.20;44.40
32173;DHT22;18679;45.190;5.722;2023-02-28T18:35:16;9.20;44.30
32173;DHT22;18679;45.190;5.722;2023-02-28T18:38:34;9.20;44.40
32173;DHT22;18679;45.190;5.722;2023-02-28T18:41:34;9.20;44.30
32173;DHT22;18679;45.190;5.722;2023-02-28T18:44:36;9.20;44.30
32173;DHT22;18679;45.190;5.722;2023-02-28T18:47:37;9.20;44.30
32173;DHT22;18679;45.190;5.722;2023-02-28T18:50:42;9.20;44.20
32173;DHT22;18679;45.190;5.722;2023-02-28T18:53:43;9.20;44.20
32173;DHT22;18679;45.190;5.722;2023-02-28T18:56:55;9.20;44.20
32173;DHT22;18679;45.190;5.722;2023-02-28T19:00:00;9.20;44.30
32173;DHT22;18679;45.190;5.722;2023-02-28T19:03:02;9.20;44.20
32173;DHT22;18679;45.190;5.722;2023-02-28T19:06:30;9.10;44.20
32173;DHT22;18679;45.190;5.722;2023-02-28T19:09:31;9.10;44.30
32173;DHT22;18679;45.190;5.722;2023-02-28T19:12:33;9.10;44.30
32173;DHT22;18679;45.190;5.722;2023-02-28T19:15:35;9.00;44.40
32173;DHT22;18679;45.190;5.722;2023-02-28T19:18:36;9.00;44.40
32173;DHT22;18679;45.190;5.722;2023-02-28T19:21:37;9.00;44.40
32173;DHT22;18679;45.190;5.722;2023-02-28T19:24:37;9.00;44.40
32173;DHT22;18679;45.190;5.722;2023-02-28T19:27:41;9.10;44.40
32173;DHT22;18679;45.190;5.722;2023-02-28T19:30:47;9.10;44.40
32173;DHT22;18679;45.190;5.722;2023-02-28T19:33:48;9.10;44.40
32173;DHT22;18679;45.190;5.722;2023-02-28T19:36:55;9.10;44.40
32173;DHT22;18679;45.190;5.722;2023-02-28T19:39:59;9.30;44.40
32173;DHT22;18679;45.190;5.722;2023-02-28T19:43:00;8.40;44.00
32173;DHT22;18679;45.190;5.722;2023-02-28T19:46:03;9.00;44.40
32173;DHT22;18679;45.190;5.722;2023-02-28T19:49:04;9.00;44.40
32173;DHT22;18679;45.190;5.722;2023-02-28T19:52:08;8.90;44.60
32173;DHT22;18679;45.190;5.722;2023-02-28T19:55:09;8.90;44.60
32173;DHT22;18679;45.190;5.722;2023-02-28T19:58:13;8.90;44.60
32173;DHT22;18679;45.190;5.722;2023-02-28T20:01:21;8.90;44.60
32173;DHT22;18679;45.190;5.722;2023-02-28T20:04:23;8.90;44.70
32173;DHT22;18679;45.190;5.722;2023-02-28T20:07:24;8.90;44.70
32173;DHT22;18679;45.190;5.722;2023-02-28T20:10:27;8.90;45.40
32173;DHT22;18679;45.190;5.722;2023-02-28T20:13:28;8.90;44.80
32173;DHT22;18679;45.190;5.722;2023-02-28T20:16:29;8.90;44.80
32173;DHT22;18679;45.190;5.722;2023-02-28T20:19:30;8.90;44.90
32173;DHT22;18679;45.190;5.722;2023-02-28T20:22:34;8.80;44.90
32173;DHT22;18679;45.190;5.722;2023-02-28T20:25:39;8.80;45.00
32173;DHT22;18679;45.190;5.722;2023-02-28T20:28:42;8.80;45.00
32173;DHT22;18679;45.190;5.722;2023-02-28T20:31:43;8.80;45.00
32173;DHT22;18679;45.190;5.722;2023-02-28T20:34:44;8.80;45.10
32173;DHT22;18679;45.190;5.722;2023-02-28T20:37:48;8.80;45.10
32173;DHT22;18679;45.190;5.722;2023-02-28T20:40:59;8.80;45.10
32173;DHT22;18679;45.190;5.722;2023-02-28T20:44:00;8.80;45.20
32173;DHT22;18679;45.190;5.722;2023-02-28T20:47:06;8.80;45.20
32173;DHT22;18679;45.190;5.722;2023-02-28T20:50:13;8.80;45.30
32173;DHT22;18679;45.190;5.722;2023-02-28T20:53:14;8.80;45.40
32173;DHT22;18679;45.190;5.722;2023-02-28T20:56:20;8.80;45.40
32173;DHT22;18679;45.190;5.722;2023-02-28T20:59:26;8.80;45.40
32173;DHT22;18679;45.190;5.722;2023-02-28T21:02:30;8.70;45.50
32173;DHT22;18679;45.190;5.722;2023-02-28T21:05:31;8.70;45.50
32173;DHT22;18679;45.190;5.722;2023-02-28T21:08:34;8.70;45.60
32173;DHT22;18679;45.190;5.722;2023-02-28T21:11:39;8.70;45.70
32173;DHT22;18679;45.190;5.722;2023-02-28T21:14:44;8.70;45.70
32173;DHT22;18679;45.190;5.722;2023-02-28T21:17:44;8.70;45.60
32173;DHT22;18679;45.190;5.722;2023-02-28T21:20:47;8.90;46.30
32173;DHT22;18679;45.190;5.722;2023-02-28T21:23:49;8.70;45.70
32173;DHT22;18679;45.190;5.722;2023-02-28T21:26:50;8.70;46.30
32173;DHT22;18679;45.190;5.722;2023-02-28T21:29:56;8.70;45.80
32173;DHT22;18679;45.190;5.722;2023-02-28T21:32:57;8.70;45.80
32173;DHT22;18679;45.190;5.722;2023-02-28T21:36:03;8.70;45.80
32173;DHT22;18679;45.190;5.722;2023-02-28T21:39:26;8.60;45.80